createdAt,value
2022-12-23T00:01:23.000Z,14.50
2022-12-23T00:11:23.000Z,13.50
2022-12-23T00:21:23.000Z,12.40
2022-12-23T00:31:23.000Z,14.00
2022-12-23T00:41:23.000Z,11.70
2022-12-23T00:51:23.000Z,10.50
2022-12-23T01:01:23.000Z,9.20
2022-12-23T01:11:23.000Z,8.40
2022-12-23T01:31:23.000Z,7.80
2022-12-23T01:41:23.000Z,7.30
2022-12-23T01:51:23.000Z,5.70
2022-12-23T02:01:23.000Z,5.90
2022-12-23T02:11:23.000Z,5.20
2022-12-23T02:21:23.000Z,5.50
2022-12-23T02:31:23.000Z,5.10
2022-12-23T02:41:23.000Z,5.00
2022-12-23T03:01:22.000Z,4.80
2022-12-23T03:11:22.000Z,4.60
2022-12-23T03:21:22.000Z,4.90
2022-12-23T03:31:22.000Z,5.00
2022-12-23T03:41:22.000Z,4.70
2022-12-23T03:51:22.000Z,4.60
2022-12-23T04:01:22.000Z,4.00
2022-12-23T04:11:22.000Z,4.20
2022-12-23T04:31:22.000Z,6.60
2022-12-23T04:41:22.000Z,4.60
2022-12-23T04:51:22.000Z,4.20
2022-12-23T05:01:22.000Z,4.40
2022-12-23T05:11:21.000Z,4.20
2022-12-23T05:21:21.000Z,4.90
2022-12-23T05:31:21.000Z,4.00
2022-12-23T05:41:21.000Z,4.50
2022-12-23T06:01:21.000Z,4.20
2022-12-23T06:11:21.000Z,4.30
2022-12-23T06:21:21.000Z,4.40
2022-12-23T06:31:21.000Z,4.90
2022-12-23T06:41:21.000Z,4.50
2022-12-23T06:51:21.000Z,5.00
2022-12-23T07:01:21.000Z,4.20
2022-12-23T07:11:20.000Z,4.80
2022-12-23T07:31:20.000Z,5.30
2022-12-23T07:41:20.000Z,5.00
2022-12-23T07:51:20.000Z,5.50
2022-12-23T08:01:20.000Z,5.10
2022-12-23T08:11:20.000Z,5.60
2022-12-23T08:21:20.000Z,6.30
2022-12-23T08:31:20.000Z,6.10
2022-12-23T08:41:20.000Z,5.80
2022-12-23T09:01:19.000Z,6.60
2022-12-23T09:11:19.000Z,6.50
2022-12-23T09:21:19.000Z,7.80
2022-12-23T09:21:19.000Z,7.80
2022-12-23T10:49:31.000Z,8.30
2022-12-23T10:49:31.000Z,5.70
2022-12-23T10:59:31.000Z,5.30
2022-12-23T11:09:31.000Z,7.00
2022-12-23T11:19:31.000Z,6.50
2022-12-23T11:29:31.000Z,6.40
2022-12-23T11:39:31.000Z,5.70
2022-12-23T11:49:31.000Z,5.20
2022-12-23T11:59:31.000Z,6.30
2022-12-23T12:19:31.000Z,5.60
2022-12-23T12:29:31.000Z,5.50
2022-12-23T12:39:31.000Z,8.60
2022-12-23T12:49:31.000Z,8.00
2022-12-23T12:59:31.000Z,7.00
2022-12-23T13:09:30.000Z,7.60
2022-12-23T13:19:30.000Z,7.20
2022-12-23T13:29:30.000Z,7.60
2022-12-23T13:49:30.000Z,9.50
2022-12-23T13:59:30.000Z,8.80
2022-12-23T14:09:30.000Z,25.20
2022-12-23T14:19:30.000Z,13.50
2022-12-23T14:29:30.000Z,14.60
2022-12-23T14:39:30.000Z,28.80
2022-12-23T14:49:30.000Z,14.90
2022-12-23T14:59:30.000Z,17.90
2022-12-23T15:19:30.000Z,20.20
2022-12-23T15:29:30.000Z,25.20
2022-12-23T15:39:30.000Z,23.50
2022-12-23T15:49:30.000Z,24.90
2022-12-23T15:59:30.000Z,45.20
2022-12-23T16:09:30.000Z,32.00
2022-12-23T16:19:30.000Z,32.00
2022-12-23T16:29:30.000Z,24.70
2022-12-23T16:49:31.000Z,21.70
2022-12-23T16:59:31.000Z,25.30
2022-12-23T17:29:49.000Z,30.10
2022-12-23T17:29:49.000Z,38.00
2022-12-23T17:39:49.000Z,32.50
2022-12-23T17:49:49.000Z,20.60
2022-12-23T17:59:49.000Z,17.70
2022-12-23T18:09:49.000Z,22.80
2022-12-23T18:19:49.000Z,19.00
2022-12-23T18:29:50.000Z,19.60
2022-12-23T18:39:50.000Z,27.00
2022-12-23T18:59:50.000Z,24.10
2022-12-23T19:09:50.000Z,23.50
2022-12-23T19:19:50.000Z,21.20
2022-12-23T19:29:51.000Z,24.20
2022-12-23T19:39:51.000Z,31.40
2022-12-23T19:49:51.000Z,22.20
2022-12-23T19:59:51.000Z,22.10
2022-12-23T20:09:51.000Z,25.90
2022-12-23T20:29:52.000Z,27.40
2022-12-23T20:39:52.000Z,34.00
2022-12-23T20:49:52.000Z,23.80
2022-12-23T20:59:52.000Z,34.30
2022-12-23T21:09:52.000Z,38.20
2022-12-23T21:09:52.000Z,38.20
2022-12-23T21:19:52.000Z,30.40
2022-12-23T21:29:52.000Z,32.60
2022-12-23T21:39:53.000Z,28.80
2022-12-23T21:59:53.000Z,19.20
2022-12-23T22:09:53.000Z,16.00
2022-12-23T22:19:53.000Z,12.40
2022-12-23T22:29:53.000Z,11.50
2022-12-23T22:39:53.000Z,13.80
2022-12-23T22:49:54.000Z,13.40
2022-12-23T22:49:54.000Z,13.40
2022-12-23T22:49:54.000Z,13.40
2022-12-23T22:59:54.000Z,12.20
2022-12-23T23:09:54.000Z,8.30
2022-12-23T23:29:54.000Z,6.80
2022-12-23T23:39:54.000Z,5.10
2022-12-23T23:49:54.000Z,4.80
2022-12-23T23:59:54.000Z,5.40
